• Join FlightAware (Why Join?)
  • Login
  • US Flag 
09:05AM EST


 

Airport Tracker/Info


-or-


 

Live Flight TrackerFlight Track Log ✈ SWA378 ✈ 27-Jan-2014 ✈ KPHX - KABQ

Flight Track Log - Related Links

Times and Time Zones

All times are in EST time to prevent confusion due to time zone crossing. See the SWA378 flight status page for this flight to view local times or setup timezone preferences in your user account.

Time Position Orientation Groundspeed Altitude Reporting Facility
EST Latitude Longitude Course Direction KTS MPH feet Rate Location/Type
08:37PM 33.4867 -112.0964 315° West 247 284 7,600  Level Albuquerque Center
08:38PM 33.5086 -112.0078 73° East 280 322 10,100 2,400 Climbing Albuquerque Center
08:39PM 33.5394 -111.8808 74° East 340 391 12,600 2,580 Climbing Albuquerque Center
08:40PM 33.5669 -111.7678 74° East 354 407 15,500 2,580 Climbing Albuquerque Center
08:41PM 33.5958 -111.6533 73° East 361 415 17,900 2,100 Climbing Albuquerque Center
08:42PM 33.6250 -111.5328 74° East 375 432 19,900 1,680 Climbing Albuquerque Center
08:43PM 33.6544 -111.4067 74° East 393 452 21,400 1,440 Climbing Albuquerque Center
08:44PM 33.6936 -111.2733 71° East 422 486 22,900 1,740 Climbing Albuquerque Center
08:45PM 33.7428 -111.1158 69° East 422 486 25,000 600 Climbing Albuquerque Center
08:46PM 33.7814 -110.9881 70° East 411 473 24,200 -900 Descending Albuquerque Center
08:47PM 33.8228 -110.8553 69° East 421 484 23,200 -600 Descending Albuquerque Center
08:48PM 33.8619 -110.7261 70° East 418 481 23,000 -120 Descending Albuquerque Center
08:49PM 33.8989 -110.6011 70° East 404 465 23,000  Level Albuquerque Center
08:50PM 33.9375 -110.4739 70° East 404 465 23,000  Level Albuquerque Center
08:51PM 33.9786 -110.3350 70° East 406 467 23,000  Level Albuquerque Center
08:52PM 34.0189 -110.2064 69° East 408 470 23,000  Level Albuquerque Center
08:53PM 34.0564 -110.0767 71° East 409 471 23,000  Level Albuquerque Center
08:54PM 34.1003 -109.9294 70° East 411 473 23,000  Level Albuquerque Center
08:55PM 34.1364 -109.8056 71° East 411 473 23,000  Level Albuquerque Center
08:56PM 34.1797 -109.6589 70° East 413 475 23,000  Level Albuquerque Center
08:57PM 34.2167 -109.5322 71° East 416 479 23,000  Level Albuquerque Center
08:58PM 34.2569 -109.3947 70° East 417 480 23,000  Level Albuquerque Center
08:59PM 34.2978 -109.2536 71° East 425 489 23,000  Level Albuquerque Center
09:00PM 34.3353 -109.1217 71° East 429 494 23,000  Level Albuquerque Center
09:01PM 34.3786 -108.9708 71° East 429 494 23,000  Level Albuquerque Center
09:02PM 34.4164 -108.8408 71° East 428 493 23,000  Level Albuquerque Center
09:03PM 34.4597 -108.6886 71° East 429 494 23,000  Level Albuquerque Center
09:04PM 34.4972 -108.5544 71° East 433 498 23,000  Level Albuquerque Center
09:05PM 34.5386 -108.4094 71° East 432 497 23,000  Level Albuquerque Center
09:06PM 34.5778 -108.2706 71° East 431 496 23,000  Level Albuquerque Center
09:07PM 34.6164 -108.1311 71° East 436 502 23,000  Level Albuquerque Center
09:08PM 34.6539 -107.9925 72° East 435 501 23,000  Level Albuquerque Center
09:09PM 34.6919 -107.8533 72° East 436 502 23,000 -180 Level Albuquerque Center
09:10PM 34.7306 -107.7181 71° East 429 494 22,700 -1,320 Descending Albuquerque Center
09:12PM 34.7658 -107.5853 72° East 418 481 20,300 -2,580 Descending Albuquerque Center
09:12PM 34.7769 -107.5367 74° East 411 473 19,500 -2,640 Descending Albuquerque Center
09:12PM 34.7875 -107.4978 72° East 406 467 18,900 -1,800 Descending Albuquerque Center
09:13PM 34.8006 -107.4550 70° East 409 471 18,100 -2,400 Descending Albuquerque Center
09:13PM 34.8214 -107.3706 73° East 393 452 16,500 -1,980 Descending Albuquerque Center
09:14PM 34.8394 -107.3064 71° East 388 447 16,100 -1,200 Descending Albuquerque Center
09:14PM 34.8633 -107.2414 66° East 348 400 15,200 -1,620 Descending Albuquerque Center
09:15PM 34.8803 -107.2022 62° Northeast 344 396 14,500 -1,800 Descending Albuquerque Center
09:15PM 34.8986 -107.1344 72° East 337 388 13,400 -1,800 Descending Albuquerque Center
09:16PM 34.8944 -107.0900 97° East 353 406 12,700 -1,200 Descending Albuquerque Center
09:16PM 34.8908 -107.0017 93° East 344 396 12,100 -600 Descending Albuquerque Center
09:17PM 34.8881 -106.9794 99° East 332 382 12,100 -600 Level Albuquerque Center
09:17PM 34.8853 -106.9075 93° East 273 314 11,500 -720 Descending Albuquerque Center
09:18PM 34.8825 -106.8847 98° East 279 321 11,400 -1,200 Descending Albuquerque Center
09:18PM 34.8789 -106.8211 94° East 247 284 10,300 -1,500 Descending Albuquerque Center
09:19PM 34.8786 -106.8039 91° East 253 291 9,900 -1,500 Descending Albuquerque Center
09:19PM 34.9131 -106.7606 46° Northeast 212 244 8,800 -1,560 Descending Albuquerque Center
09:20PM 34.9294 -106.7425 42° Northeast 212 244 8,300 -1,500 Descending Albuquerque Center
09:20PM 34.9519 -106.7144 46° Northeast 189 217 7,300 -1,500 Descending Albuquerque Center
09:21PM 34.9669 -106.6972 43° Northeast 195 224 6,800 -1,020 Descending Albuquerque Center
09:21PM 34.9856 -106.6747 45° Northeast 183 211 6,400 -900 Descending Albuquerque Center
09:22PM 35.0006 -106.6558 46° Northeast 176 203 5,900 -900 Descending Albuquerque Center
09:22PM 35.0169 -106.6353 46° Northeast 157 181 5,500 -600 Descending Albuquerque Center
09:23PM 35.0339 -106.6164 42° Northeast 158 182 5,300 -420 Descending Albuquerque Center
09:25PM 35.0333 -106.6000 51° Northeast  Level FlightAware Approximate